Time;durP1;ratioP1;P1;durP2;ratioP2;P2;SDS_P1;SDS_P2;PMS_P1;PMS_P2;Temp;Humidity;BMP_temperature;BMP_pressure;BME280_temperature;BME280_humidity;BME280_pressure;Samples;Min_cycle;Max_cycle;Signal;HPM_P1;HPM_P2
2023/08/03 00:01:40;;;;;;;;;;;;;;;24.68;49.67;96039.06;4231529;27;5647;-68
2023/08/03 00:03:43;;;;;;;;;;;;;;;24.68;49.24;96034.44;4233020;28;6434;-68
2023/08/03 00:05:47;;;;;;;;;;;;;;;24.67;49.03;96026.66;4230037;28;5745;-68
2023/08/03 00:07:51;;;;;;;;;;;;;;;24.68;48.83;96031.75;4229238;28;5663;-68
2023/08/03 00:09:53;;;;;;;;;;;;;;;24.67;48.72;96021.25;4230386;28;5793;-68
2023/08/03 00:11:56;;;;;;;;;;;;;;;24.63;48.55;96036.47;4234374;27;5646;-68
2023/08/03 00:14:00;;;;;;;;;;;;;;;24.64;48.87;96032.66;4230595;27;5661;-68
2023/08/03 00:16:03;;;;;;;;;;;;;;;24.64;48.42;96038.06;4224976;28;7316;-68
2023/08/03 00:18:06;;;;;;;;;;;;;;;24.63;48.40;96031.84;4228124;28;5899;-68
2023/08/03 00:20:10;;;;;;;;;;;;;;;24.62;48.30;96029.47;4230801;28;5725;-68
2023/08/03 00:22:13;;;;;;;;;;;;;;;24.61;48.62;96038.66;4227147;28;5667;-68
2023/08/03 00:24:15;;;;;;;;;;;;;;;24.60;48.36;96037.06;4232874;28;5671;-68
2023/08/03 00:26:18;;;;;;;;;;;;;;;24.60;48.20;96037.88;4227642;28;5906;-69
2023/08/03 00:28:22;;;;;;;;;;;;;;;24.61;48.13;96042.19;4235453;28;5795;-68
2023/08/03 00:30:26;;;;;;;;;;;;;;;24.61;48.27;96044.06;4235523;28;5748;-68
2023/08/03 00:32:29;;;;;;;;;;;;;;;24.60;48.22;96047.88;4235564;28;5682;-69
2023/08/03 00:34:31;;;;;;;;;;;;;;;24.58;47.78;96044.69;4235375;28;5745;-69
2023/08/03 00:36:34;;;;;;;;;;;;;;;24.56;47.50;96046.88;4235351;28;5639;-68
2023/08/03 00:38:37;;;;;;;;;;;;;;;24.56;47.58;96044.16;4233028;28;5798;-68
2023/08/03 00:40:40;;;;;;;;;;;;;;;24.53;47.49;96050.16;4225844;28;5771;-68
2023/08/03 00:42:43;;;;;;;;;;;;;;;24.50;47.55;96051.56;4226504;28;5808;-68
2023/08/03 00:44:46;;;;;;;;;;;;;;;24.48;47.46;96044.88;4233022;28;6323;-69
2023/08/03 00:46:50;;;;;;;;;;;;;;;24.49;47.00;96043.78;4234420;28;7708;-68
2023/08/03 00:48:53;;;;;;;;;;;;;;;24.48;47.05;96031.38;4235073;28;6124;-69
2023/08/03 00:50:56;;;;;;;;;;;;;;;24.47;47.05;96035.97;4233864;28;7715;-68
2023/08/03 00:52:59;;;;;;;;;;;;;;;24.46;46.63;96036.25;4234859;28;5642;-68
2023/08/03 00:55:02;;;;;;;;;;;;;;;24.43;46.35;96044.97;4234544;27;5740;-68
2023/08/03 00:57:06;;;;;;;;;;;;;;;24.42;46.13;96040.66;4228765;28;6407;-68
2023/08/03 00:59:10;;;;;;;;;;;;;;;24.43;46.18;96042.25;4235033;27;5748;-68
2023/08/03 01:01:13;;;;;;;;;;;;;;;24.43;46.37;96037.66;4232142;28;5777;-68
2023/08/03 01:03:18;;;;;;;;;;;;;;;24.39;46.23;96042.06;4223870;28;5695;-68
2023/08/03 01:05:20;;;;;;;;;;;;;;;24.38;46.25;96040.47;4234637;27;5754;-68
2023/08/03 01:07:23;;;;;;;;;;;;;;;24.38;46.30;96040.47;4234394;28;5866;-68
2023/08/03 01:09:26;;;;;;;;;;;;;;;24.39;45.85;96045.56;4234165;28;5705;-68
2023/08/03 01:11:29;;;;;;;;;;;;;;;24.41;46.05;96039.06;4234498;28;5859;-68
2023/08/03 01:13:32;;;;;;;;;;;;;;;24.42;46.32;96044.16;4228234;27;5729;-68
2023/08/03 01:15:35;;;;;;;;;;;;;;;24.41;46.13;96053.38;4234291;28;5656;-68
2023/08/03 01:17:38;;;;;;;;;;;;;;;24.42;46.16;96057.66;4234242;28;5601;-69
2023/08/03 01:19:42;;;;;;;;;;;;;;;24.42;45.76;96056.88;4233599;28;5807;-68
2023/08/03 01:21:46;;;;;;;;;;;;;;;24.43;46.01;96058.47;4231561;28;5729;-68
2023/08/03 01:23:51;;;;;;;;;;;;;;;24.41;45.87;96066.06;4233774;27;5768;-68
2023/08/03 01:25:52;;;;;;;;;;;;;;;24.39;46.06;96069.88;4233842;28;5740;-68
2023/08/03 01:27:56;;;;;;;;;;;;;;;24.39;46.25;96075.28;4234132;28;5706;-68
2023/08/03 01:29:59;;;;;;;;;;;;;;;24.42;46.62;96063.06;4233171;28;5654;-68
2023/08/03 01:32:02;;;;;;;;;;;;;;;24.41;46.46;96074.97;4234255;28;5617;-68
2023/08/03 01:34:06;;;;;;;;;;;;;;;24.41;46.50;96077.69;4225803;28;5605;-68
2023/08/03 01:36:09;;;;;;;;;;;;;;;24.42;46.19;96083.88;4234300;28;5674;-68
2023/08/03 01:38:13;;;;;;;;;;;;;;;24.41;46.16;96080.38;4234079;28;5609;-68
2023/08/03 01:40:18;;;;;;;;;;;;;;;24.41;46.28;96085.00;4225275;27;5790;-68
2023/08/03 01:42:21;;;;;;;;;;;;;;;24.39;45.74;96088.00;4234100;27;5654;-68
2023/08/03 01:44:26;;;;;;;;;;;;;;;24.38;45.82;96086.38;4233968;28;7213;-68
2023/08/03 01:46:29;;;;;;;;;;;;;;;24.37;45.56;96077.50;4226568;27;5679;-68
2023/08/03 01:48:32;;;;;;;;;;;;;;;24.37;45.38;96096.41;4224554;28;5762;-68
2023/08/03 01:50:35;;;;;;;;;;;;;;;24.37;44.83;96093.69;4225168;28;5715;-68
2023/08/03 01:52:38;;;;;;;;;;;;;;;24.36;44.74;96100.19;4228250;28;5672;-68
2023/08/03 01:54:41;;;;;;;;;;;;;;;24.35;44.67;96105.88;4228563;28;6311;-68
2023/08/03 01:56:45;;;;;;;;;;;;;;;24.35;44.19;96116.69;4233891;28;5682;-68
2023/08/03 01:58:48;;;;;;;;;;;;;;;24.33;44.32;96130.47;4234155;28;5848;-68
2023/08/03 02:00:51;;;;;;;;;;;;;;;24.34;43.76;96125.88;4234113;27;5609;-68
2023/08/03 02:02:54;;;;;;;;;;;;;;;24.32;44.01;96122.69;4233701;28;5770;-68
2023/08/03 02:04:57;;;;;;;;;;;;;;;24.31;43.79;96138.09;4227031;28;5666;-68
2023/08/03 02:07:09;;;;;;;;;;;;;;;24.29;44.00;96134.84;4234008;27;5690;-68
2023/08/03 02:09:11;;;;;;;;;;;;;;;24.30;43.83;96141.88;4233868;28;5610;-68
2023/08/03 02:11:13;;;;;;;;;;;;;;;24.31;43.82;96143.50;4234078;28;5654;-69
2023/08/03 02:13:18;;;;;;;;;;;;;;;24.30;44.15;96150.00;4233531;27;5654;-69
2023/08/03 02:15:21;;;;;;;;;;;;;;;24.29;44.26;96150.25;4233842;28;5142;-68
2023/08/03 02:17:22;;;;;;;;;;;;;;;24.28;44.36;96144.06;4233813;28;5987;-68
2023/08/03 02:19:26;;;;;;;;;;;;;;;24.26;44.16;96148.16;4233997;28;5770;-68
2023/08/03 02:21:28;;;;;;;;;;;;;;;24.26;44.59;96148.16;4228007;27;5741;-68
2023/08/03 02:23:31;;;;;;;;;;;;;;;24.23;44.42;96149.53;4233930;28;5860;-68
2023/08/03 02:25:33;;;;;;;;;;;;;;;24.21;44.52;96146.31;4233609;28;5625;-68
2023/08/03 02:27:36;;;;;;;;;;;;;;;24.21;44.49;96154.44;4233542;28;5714;-68
2023/08/03 02:29:40;;;;;;;;;;;;;;;24.20;44.17;96146.63;4233867;28;5657;-68
2023/08/03 02:31:42;;;;;;;;;;;;;;;24.20;44.33;96149.31;4233835;27;5752;-68
2023/08/03 02:33:44;;;;;;;;;;;;;;;24.17;44.26;96153.44;4225400;28;5656;-68
2023/08/03 02:35:47;;;;;;;;;;;;;;;24.13;44.15;96149.72;4233928;28;6348;-69
2023/08/03 02:37:50;;;;;;;;;;;;;;;24.13;43.89;96160.53;4232636;28;8585;-68
2023/08/03 02:39:53;;;;;;;;;;;;;;;24.11;43.71;96151.88;4235292;28;5749;-68
2023/08/03 02:41:55;;;;;;;;;;;;;;;24.08;44.27;96155.19;4236868;28;5681;-69
2023/08/03 02:43:58;;;;;;;;;;;;;;;24.08;43.86;96156.00;4237178;28;5647;-68
2023/08/03 02:46:03;;;;;;;;;;;;;;;24.08;43.89;96166.00;4232195;28;5894;-68
2023/08/03 02:48:06;;;;;;;;;;;;;;;24.07;43.99;96164.38;4228394;28;5859;-68
2023/08/03 02:50:09;;;;;;;;;;;;;;;24.06;43.56;96160.88;4237020;28;5670;-68
2023/08/03 02:52:12;;;;;;;;;;;;;;;24.05;43.66;96167.38;4236938;28;5651;-68
2023/08/03 02:54:15;;;;;;;;;;;;;;;24.05;43.44;96167.38;4236631;28;5650;-68
2023/08/03 02:56:18;;;;;;;;;;;;;;;24.05;43.75;96169.28;4236931;28;5642;-68
2023/08/03 02:58:21;;;;;;;;;;;;;;;24.04;43.78;96164.97;4236985;27;5703;-68
2023/08/03 03:00:23;;;;;;;;;;;;;;;24.04;43.58;96159.59;4236949;27;5864;-68
2023/08/03 03:02:28;;;;;;;;;;;;;;;24.05;43.47;96170.09;4236421;28;5794;-68
2023/08/03 03:04:31;;;;;;;;;;;;;;;24.05;43.30;96177.38;4233742;27;5687;-68
2023/08/03 03:06:34;;;;;;;;;;;;;;;24.04;43.39;96167.69;4226673;28;6537;-68
2023/08/03 03:08:36;;;;;;;;;;;;;;;24.03;43.40;96163.38;4236336;28;5655;-68
2023/08/03 03:10:40;;;;;;;;;;;;;;;24.05;43.62;96174.69;4225194;28;5780;-68
2023/08/03 03:12:43;;;;;;;;;;;;;;;24.00;43.63;96167.44;4225330;28;5851;-68
2023/08/03 03:14:46;;;;;;;;;;;;;;;24.00;43.48;96170.16;4224351;28;5735;-68
2023/08/03 03:16:49;;;;;;;;;;;;;;;24.02;43.61;96172.59;4222694;28;5675;-68
2023/08/03 03:18:53;;;;;;;;;;;;;;;24.04;43.67;96181.19;4224059;28;5763;-68
2023/08/03 03:20:56;;;;;;;;;;;;;;;24.04;43.67;96183.88;4220940;28;5658;-68
2023/08/03 03:22:59;;;;;;;;;;;;;;;24.00;43.79;96180.16;4227316;28;5808;-68
2023/08/03 03:25:02;;;;;;;;;;;;;;;23.98;43.96;96182.34;4221702;27;5758;-68
2023/08/03 03:27:06;;;;;;;;;;;;;;;23.99;43.90;96186.66;4222936;28;5845;-68
2023/08/03 03:29:08;;;;;;;;;;;;;;;23.99;43.92;96170.44;4224607;28;5787;-68
2023/08/03 03:31:11;;;;;;;;;;;;;;;23.96;43.73;96179.13;4227811;28;5667;-68
2023/08/03 03:33:28;;;;;;;;;;;;;;;23.92;43.48;96180.84;4219646;28;5702;-68
2023/08/03 03:35:32;;;;;;;;;;;;;;;23.91;43.71;96177.34;4223195;28;5660;-68
2023/08/03 03:37:35;;;;;;;;;;;;;;;23.92;43.72;96188.94;4220880;28;5646;-68
2023/08/03 03:39:38;;;;;;;;;;;;;;;23.91;43.36;96184.63;4224282;28;5641;-68
2023/08/03 03:41:41;;;;;;;;;;;;;;;23.89;43.65;96184.09;4225739;28;6361;-68
2023/08/03 03:43:44;;;;;;;;;;;;;;;23.89;43.43;96189.50;4225462;27;5665;-69
2023/08/03 03:45:46;;;;;;;;;;;;;;;23.89;43.56;96190.28;4228794;28;5652;-68
2023/08/03 03:47:49;;;;;;;;;;;;;;;23.87;43.75;96189.00;4236047;27;5274;-68
2023/08/03 03:49:52;;;;;;;;;;;;;;;23.88;43.65;96201.38;4235880;28;5659;-68
2023/08/03 03:51:56;;;;;;;;;;;;;;;23.89;43.59;96203.00;4236270;27;5650;-69
2023/08/03 03:53:59;;;;;;;;;;;;;;;23.88;43.44;96194.09;4228587;28;5759;-68
2023/08/03 03:56:03;;;;;;;;;;;;;;;23.87;43.01;96210.59;4235633;28;6475;-68
2023/08/03 03:58:05;;;;;;;;;;;;;;;23.87;43.48;96207.88;4227624;28;5806;-68
2023/08/03 04:00:09;;;;;;;;;;;;;;;23.89;43.48;96213.78;4235940;28;5700;-69
2023/08/03 04:02:12;;;;;;;;;;;;;;;23.88;43.02;96218.38;4230711;28;6611;-69
2023/08/03 04:04:15;;;;;;;;;;;;;;;23.87;43.12;96216.78;4235986;27;5646;-68
2023/08/03 04:06:18;;;;;;;;;;;;;;;23.85;43.63;96221.66;4234451;28;5717;-68
2023/08/03 04:08:22;;;;;;;;;;;;;;;23.85;43.24;96221.66;4235787;28;5613;-68
2023/08/03 04:10:25;;;;;;;;;;;;;;;23.87;43.30;96230.28;4232679;27;5650;-68
2023/08/03 04:12:48;;;;;;;;;;;;;;;23.87;42.82;96240.28;4233073;28;5659;-69
2023/08/03 04:15:11;;;;;;;;;;;;;;;23.87;43.48;96224.88;4227853;28;5604;-68
2023/08/03 04:17:14;;;;;;;;;;;;;;;23.89;43.38;96225.38;4235565;28;5602;-68
2023/08/03 04:19:17;;;;;;;;;;;;;;;23.89;43.07;96221.88;4235697;28;5663;-68
2023/08/03 04:21:20;;;;;;;;;;;;;;;23.87;42.69;96218.69;4235633;27;5661;-69
2023/08/03 04:23:24;;;;;;;;;;;;;;;23.84;42.79;96227.38;4235650;28;5489;-69
2023/08/03 04:25:26;;;;;;;;;;;;;;;23.83;42.99;96221.16;4235110;28;5732;-69
2023/08/03 04:27:29;;;;;;;;;;;;;;;23.84;42.70;96227.38;4232409;28;5653;-68
2023/08/03 04:29:32;;;;;;;;;;;;;;;23.83;43.07;96229.25;4230711;28;5666;-68
2023/08/03 04:31:35;;;;;;;;;;;;;;;23.84;43.13;96222.78;4234215;28;5723;-68
2023/08/03 04:33:37;;;;;;;;;;;;;;;23.85;43.04;96226.28;4235167;28;5662;-69
2023/08/03 04:35:41;;;;;;;;;;;;;;;23.85;43.21;96226.28;4235586;28;5733;-69
2023/08/03 04:37:43;;;;;;;;;;;;;;;23.86;42.82;96228.66;4234554;28;5694;-68
2023/08/03 04:39:49;;;;;;;;;;;;;;;23.88;43.13;96231.06;4228993;28;5700;-68
2023/08/03 04:41:52;;;;;;;;;;;;;;;23.89;43.36;96219.97;4233414;28;6400;-68
2023/08/03 04:43:54;;;;;;;;;;;;;;;23.89;43.18;96225.38;4235258;27;5654;-68
2023/08/03 04:45:56;;;;;;;;;;;;;;;23.88;43.08;96225.69;4226506;28;6336;-68
2023/08/03 04:47:59;;;;;;;;;;;;;;;23.87;43.21;96227.56;4234974;28;5732;-69
2023/08/03 04:50:02;;;;;;;;;;;;;;;23.87;43.04;96224.88;4235126;27;5625;-69
2023/08/03 04:52:06;;;;;;;;;;;;;;;23.88;43.73;96231.06;4235190;27;5646;-69
2023/08/03 04:54:11;;;;;;;;;;;;;;;23.88;43.30;96231.06;4234664;28;5756;-68
2023/08/03 04:56:14;;;;;;;;;;;;;;;23.88;43.66;96225.69;4234918;27;5669;-69
2023/08/03 04:58:17;;;;;;;;;;;;;;;23.87;43.58;96238.38;4233829;28;5773;-69
2023/08/03 05:00:20;;;;;;;;;;;;;;;23.86;43.54;96231.38;4234638;28;5701;-69
2023/08/03 05:02:23;;;;;;;;;;;;;;;23.89;43.65;96235.38;4234079;28;6330;-69
2023/08/03 05:04:27;;;;;;;;;;;;;;;23.90;43.84;96236.97;4234932;28;5605;-69
2023/08/03 05:06:30;;;;;;;;;;;;;;;23.91;43.38;96235.91;4234745;28;5613;-69
2023/08/03 05:08:32;;;;;;;;;;;;;;;23.91;43.56;96241.31;4234773;28;5707;-69
2023/08/03 05:10:35;;;;;;;;;;;;;;;23.91;43.70;96244.81;4234694;28;5751;-69
2023/08/03 05:12:41;;;;;;;;;;;;;;;23.90;43.55;96245.91;4234895;28;5789;-69
2023/08/03 05:14:44;;;;;;;;;;;;;;;23.90;43.53;96250.47;4234687;28;5634;-69
2023/08/03 05:16:47;;;;;;;;;;;;;;;23.90;43.58;96247.78;4234466;28;6348;-69
2023/08/03 05:18:51;;;;;;;;;;;;;;;23.90;43.72;96245.91;4234365;28;6848;-69
2023/08/03 05:20:54;;;;;;;;;;;;;;;23.91;43.78;96241.31;4234498;28;5728;-69
2023/08/03 05:22:57;;;;;;;;;;;;;;;23.90;44.17;96234.28;4229339;28;5755;-69
2023/08/03 05:25:00;;;;;;;;;;;;;;;23.89;43.95;96243.47;4226050;27;5825;-69
2023/08/03 05:27:03;;;;;;;;;;;;;;;23.87;44.04;96254.56;4234127;28;5787;-70
2023/08/03 05:29:09;;;;;;;;;;;;;;;23.87;44.02;96245.66;4225157;28;6331;-68
2023/08/03 05:31:12;;;;;;;;;;;;;;;23.85;43.97;96248.66;4227177;28;5651;-69
2023/08/03 05:33:16;;;;;;;;;;;;;;;23.85;44.21;96250.56;4234551;28;5799;-68
2023/08/03 05:35:19;;;;;;;;;;;;;;;23.85;44.16;96253.25;4232550;28;5658;-68
2023/08/03 05:37:22;;;;;;;;;;;;;;;23.84;44.18;96255.16;4228050;28;5687;-70
2023/08/03 05:39:26;;;;;;;;;;;;;;;23.85;44.34;96261.34;4220325;28;6405;-68
2023/08/03 05:41:30;;;;;;;;;;;;;;;23.85;44.18;96270.25;4228413;28;5786;-68
2023/08/03 05:43:32;;;;;;;;;;;;;;;23.86;44.31;96265.66;4234240;28;5741;-68
2023/08/03 05:45:42;;;;;;;;;;;;;;;23.86;44.41;96271.06;4233969;28;5642;-68
2023/08/03 05:47:45;;;;;;;;;;;;;;;23.87;44.59;96268.06;4234126;28;5634;-69
2023/08/03 05:49:48;;;;;;;;;;;;;;;23.88;44.28;96269.66;4234121;27;5643;-68
2023/08/03 05:51:50;;;;;;;;;;;;;;;23.87;44.17;96267.25;4233895;28;5706;-68
2023/08/03 05:53:54;;;;;;;;;;;;;;;23.87;44.33;96261.88;4233800;28;5737;-68
2023/08/03 05:55:56;;;;;;;;;;;;;;;23.89;44.74;96265.06;4234012;28;5654;-68
2023/08/03 05:58:16;;;;;;;;;;;;;;;23.89;44.24;96267.78;4227176;28;5642;-68
2023/08/03 06:00:21;;;;;;;;;;;;;;;23.89;44.79;96265.06;4234240;28;5746;-68
2023/08/03 06:02:32;;;;;;;;;;;;;;;23.90;44.45;96269.38;4234076;27;5872;-68
2023/08/03 06:04:36;;;;;;;;;;;;;;;23.92;44.52;96269.91;4234124;28;5659;-68
2023/08/03 06:06:39;;;;;;;;;;;;;;;23.91;45.19;96271.00;4234043;28;5643;-68
2023/08/03 06:08:46;;;;;;;;;;;;;;;23.91;44.66;96268.31;4234103;28;5649;-68
2023/08/03 06:10:51;;;;;;;;;;;;;;;23.93;44.89;96266.91;4225651;28;6347;-68
2023/08/03 06:12:53;;;;;;;;;;;;;;;23.93;44.73;96263.41;4237828;28;5843;-68
2023/08/03 06:14:56;;;;;;;;;;;;;;;23.91;45.12;96257.50;4237354;28;5692;-69
2023/08/03 06:16:59;;;;;;;;;;;;;;;23.92;44.96;96259.13;4237304;28;5659;-69
2023/08/03 06:19:03;;;;;;;;;;;;;;;23.91;44.51;96260.22;4237387;28;5658;-69
2023/08/03 06:21:05;;;;;;;;;;;;;;;23.92;44.83;96259.13;4237239;28;5976;-68
2023/08/03 06:23:13;;;;;;;;;;;;;;;23.93;44.53;96260.72;4237126;28;8505;-68
2023/08/03 06:25:17;;;;;;;;;;;;;;;23.92;44.26;96261.81;4237273;27;5613;-68
2023/08/03 06:27:20;;;;;;;;;;;;;;;23.92;44.24;96267.22;4228652;28;5679;-68
2023/08/03 06:29:22;;;;;;;;;;;;;;;23.92;44.41;96265.31;4237337;28;5757;-68
2023/08/03 06:31:36;;;;;;;;;;;;;;;23.93;44.41;96269.63;4237136;28;5737;-69
2023/08/03 06:33:39;;;;;;;;;;;;;;;23.95;44.55;96272.03;4237250;28;6467;-68
2023/08/03 06:35:44;;;;;;;;;;;;;;;23.94;44.64;96267.72;4231708;28;5728;-68
2023/08/03 06:37:47;;;;;;;;;;;;;;;23.96;44.68;96268.22;4237114;28;5645;-68
2023/08/03 06:39:51;;;;;;;;;;;;;;;23.96;44.69;96268.22;4236817;28;5669;-68
2023/08/03 06:41:53;;;;;;;;;;;;;;;23.95;44.73;96255.81;4235468;28;5813;-68
2023/08/03 06:43:57;;;;;;;;;;;;;;;23.96;44.57;96269.03;4229822;28;6332;-68
2023/08/03 06:46:00;;;;;;;;;;;;;;;23.98;44.37;96260.63;4236092;28;5726;-69
2023/08/03 06:48:04;;;;;;;;;;;;;;;23.96;44.17;96257.44;4236807;28;5625;-68
2023/08/03 06:50:08;;;;;;;;;;;;;;;23.95;44.13;96262.03;4235825;28;5836;-69
2023/08/03 06:52:12;;;;;;;;;;;;;;;23.98;44.40;96268.72;4236939;28;5625;-69
2023/08/03 06:54:15;;;;;;;;;;;;;;;23.99;44.58;96273.03;4236538;28;5797;-68
2023/08/03 06:56:18;;;;;;;;;;;;;;;23.97;44.02;96259.03;4236817;28;5638;-69
2023/08/03 06:58:21;;;;;;;;;;;;;;;23.96;44.28;96268.22;4236647;28;5646;-69
2023/08/03 07:00:24;;;;;;;;;;;;;;;23.97;43.93;96269.81;4225912;28;5813;-69
2023/08/03 07:02:27;;;;;;;;;;;;;;;23.96;44.44;96268.22;4231638;28;5222;-69
2023/08/03 07:04:30;;;;;;;;;;;;;;;23.95;44.09;96272.03;4236921;28;5650;-69
2023/08/03 07:06:33;;;;;;;;;;;;;;;23.96;43.79;96273.63;4236849;28;5617;-69
2023/08/03 07:08:36;;;;;;;;;;;;;;;23.96;44.14;96276.31;4236686;28;5769;-69
2023/08/03 07:10:39;;;;;;;;;;;;;;;23.93;44.18;96276.91;4236416;28;5111;-69
2023/08/03 07:12:43;;;;;;;;;;;;;;;23.96;43.84;96268.22;4236486;28;5699;-69
2023/08/03 07:14:46;;;;;;;;;;;;;;;23.98;43.92;96274.94;4236726;28;5755;-69
2023/08/03 07:16:49;;;;;;;;;;;;;;;24.00;44.19;96274.63;4236332;28;5643;-69
2023/08/03 07:18:52;;;;;;;;;;;;;;;24.04;43.65;96275.69;4236532;27;5658;-69
2023/08/03 07:20:55;;;;;;;;;;;;;;;24.06;43.92;96279.69;4236566;27;5643;-69
2023/08/03 07:22:58;;;;;;;;;;;;;;;24.09;44.15;96272.91;4236054;28;5655;-69
2023/08/03 07:25:02;;;;;;;;;;;;;;;24.10;43.93;96271.78;4236248;28;5621;-69
2023/08/03 07:27:05;;;;;;;;;;;;;;;24.11;44.18;96278.81;4227970;28;5907;-69
2023/08/03 07:29:08;;;;;;;;;;;;;;;24.14;43.86;96272.84;4236162;28;5635;-69
2023/08/03 07:31:14;;;;;;;;;;;;;;;24.16;44.14;96270.66;4236355;28;5655;-69
2023/08/03 07:33:17;;;;;;;;;;;;;;;24.18;43.69;96275.75;4236582;28;5661;-69
2023/08/03 07:35:20;;;;;;;;;;;;;;;24.20;43.87;96277.06;4231176;27;5654;-69
2023/08/03 07:37:23;;;;;;;;;;;;;;;24.23;43.86;96276.47;4236306;28;6518;-69
2023/08/03 07:39:26;;;;;;;;;;;;;;;24.25;43.91;96281.59;4235922;28;5651;-69
2023/08/03 07:41:30;;;;;;;;;;;;;;;24.25;44.12;96279.69;4236285;28;5642;-69
2023/08/03 07:43:33;;;;;;;;;;;;;;;24.26;44.10;96281.31;4236130;28;5817;-70
2023/08/03 07:45:38;;;;;;;;;;;;;;;24.27;44.48;96282.91;4235950;28;5643;-69
2023/08/03 07:47:44;;;;;;;;;;;;;;;24.29;44.37;96283.41;4236161;28;5616;-69
2023/08/03 07:49:47;;;;;;;;;;;;;;;24.31;44.14;96283.94;4236022;28;5609;-69
2023/08/03 07:51:50;;;;;;;;;;;;;;;24.33;44.21;96291.75;4230439;28;5667;-69
2023/08/03 07:53:53;;;;;;;;;;;;;;;24.33;44.12;96284.44;4233997;28;5713;-69
2023/08/03 07:55:55;;;;;;;;;;;;;;;24.36;43.93;96291.19;4235294;28;5638;-70
2023/08/03 07:57:59;;;;;;;;;;;;;;;24.34;43.56;96293.34;4225908;27;5749;-70
2023/08/03 08:00:03;;;;;;;;;;;;;;;24.31;43.31;96293.94;4232894;28;5806;-70
2023/08/03 08:02:07;;;;;;;;;;;;;;;24.31;43.21;96300.16;4234634;28;5839;-69
2023/08/03 08:04:10;;;;;;;;;;;;;;;24.29;42.89;96291.50;4234573;27;6490;-69
2023/08/03 08:06:15;;;;;;;;;;;;;;;24.26;42.88;96294.81;4234731;28;5738;-69
2023/08/03 08:08:18;;;;;;;;;;;;;;;24.24;42.82;96286.19;4233433;28;5713;-69
2023/08/03 08:10:21;;;;;;;;;;;;;;;24.26;42.86;96294.81;4228005;28;5741;-69
2023/08/03 08:12:24;;;;;;;;;;;;;;;24.26;42.91;96292.09;4234431;28;5876;-69
2023/08/03 08:14:28;;;;;;;;;;;;;;;24.27;42.95;96288.31;4234396;28;5761;-70
2023/08/03 08:16:31;;;;;;;;;;;;;;;24.28;42.93;96295.31;4233872;28;5812;-69
2023/08/03 08:18:35;;;;;;;;;;;;;;;24.28;42.28;96289.09;4234243;28;5737;-70
2023/08/03 08:20:39;;;;;;;;;;;;;;;24.28;42.49;96286.41;4234100;27;5764;-69
2023/08/03 08:22:41;;;;;;;;;;;;;;;24.27;42.38;96285.59;4233808;28;5758;-69
2023/08/03 08:24:44;;;;;;;;;;;;;;;24.28;42.67;96295.31;4233976;27;5775;-70
2023/08/03 08:26:47;;;;;;;;;;;;;;;24.28;42.54;96281.00;4226387;28;5658;-70
2023/08/03 08:28:56;;;;;;;;;;;;;;;24.31;42.63;96292.06;4234010;28;6922;-70
2023/08/03 08:31:09;;;;;;;;;;;;;;;24.33;42.14;96297.97;4226331;28;5613;-70
2023/08/03 08:33:15;;;;;;;;;;;;;;;24.35;42.44;96295.78;4233866;27;5730;-70
2023/08/03 08:35:18;;;;;;;;;;;;;;;24.37;42.63;96299.00;4228826;27;5646;-70
2023/08/03 08:37:21;;;;;;;;;;;;;;;24.40;42.51;96297.59;4234074;28;5638;-69
2023/08/03 08:39:24;;;;;;;;;;;;;;;24.43;42.58;96291.59;4233647;28;5813;-70
2023/08/03 08:41:27;;;;;;;;;;;;;;;24.44;42.47;96290.50;4234131;28;5654;-71
2023/08/03 08:43:30;;;;;;;;;;;;;;;24.47;42.32;96298.03;4226106;28;5771;-70
2023/08/03 08:45:33;;;;;;;;;;;;;;;24.52;42.18;96291.75;4233598;28;5955;-72
2023/08/03 08:47:37;;;;;;;;;;;;;;;24.54;42.53;96305.75;4233567;28;5646;-71
2023/08/03 08:49:40;;;;;;;;;;;;;;;24.52;42.46;96311.47;4233689;27;5729;-69
2023/08/03 08:51:49;;;;;;;;;;;;;;;24.52;42.58;96307.97;4234099;27;5736;-69
2023/08/03 08:53:54;;;;;;;;;;;;;;;24.52;42.37;96311.47;4226438;27;5711;-70
2023/08/03 08:56:00;;;;;;;;;;;;;;;24.53;42.41;96317.66;4231537;28;5650;-70
2023/08/03 08:58:06;;;;;;;;;;;;;;;24.53;42.25;96310.38;4225552;28;5675;-70
2023/08/03 09:00:12;;;;;;;;;;;;;;;24.55;42.69;96310.06;4225893;28;5746;-70
2023/08/03 09:02:25;;;;;;;;;;;;;;;24.59;42.75;96303.78;4233557;28;5617;-70
2023/08/03 09:04:31;;;;;;;;;;;;;;;24.62;42.67;96307.81;4233770;28;5606;-70
2023/08/03 09:06:43;;;;;;;;;;;;;;;24.65;42.67;96301.81;4233667;27;5745;-69
2023/08/03 09:08:53;;;;;;;;;;;;;;;24.67;43.00;96307.72;4233427;28;5844;-70
2023/08/03 09:10:57;;;;;;;;;;;;;;;24.67;42.73;96303.09;4233468;28;5742;-69
2023/08/03 09:12:59;;;;;;;;;;;;;;;24.68;42.98;96299.31;4224405;28;5077;-69
2023/08/03 09:15:02;;;;;;;;;;;;;;;24.70;42.65;96296.34;4233158;28;5638;-70
2023/08/03 09:17:16;;;;;;;;;;;;;;;24.72;42.83;96302.25;4225633;28;5854;-69
2023/08/03 09:19:37;;;;;;;;;;;;;;;24.73;43.00;96294.94;4233318;28;5642;-69
2023/08/03 09:21:57;;;;;;;;;;;;;;;24.74;43.21;96297.34;4233368;28;5605;-69
2023/08/03 09:24:17;;;;;;;;;;;;;;;24.71;43.18;96297.94;4233271;28;5883;-69
2023/08/03 09:26:24;;;;;;;;;;;;;;;24.74;42.66;96297.34;4227066;28;5630;-69
2023/08/03 09:28:36;;;;;;;;;;;;;;;24.74;42.63;96297.34;4233150;28;5630;-69
2023/08/03 09:30:48;;;;;;;;;;;;;;;24.71;42.39;96292.53;4233212;28;5724;-70
2023/08/03 09:33:14;;;;;;;;;;;;;;;24.70;42.54;96301.75;4233213;28;6010;-69
2023/08/03 09:35:23;;;;;;;;;;;;;;;24.71;42.54;96297.94;4226471;28;7146;-69
2023/08/03 09:37:33;;;;;;;;;;;;;;;24.71;42.45;96299.84;4232906;28;5726;-70
2023/08/03 09:39:52;;;;;;;;;;;;;;;24.71;42.25;96292.53;4232903;28;5646;-69
2023/08/03 09:41:57;;;;;;;;;;;;;;;24.72;41.93;96302.25;4232940;28;5748;-69
2023/08/03 09:44:02;;;;;;;;;;;;;;;24.71;41.81;96303.34;4233354;28;5757;-69
2023/08/03 09:46:05;;;;;;;;;;;;;;;24.67;41.92;96307.72;4232622;28;5770;-70
2023/08/03 09:48:07;;;;;;;;;;;;;;;24.63;41.48;96304.00;4225221;28;7053;-69
2023/08/03 09:50:11;;;;;;;;;;;;;;;24.59;41.18;96303.78;4232207;28;5635;-70
2023/08/03 09:52:18;;;;;;;;;;;;;;;24.57;41.08;96308.66;4225799;28;5654;-69
2023/08/03 09:54:54;;;;;;;;;;;;;;;24.55;41.09;96310.88;4233195;27;5811;-70
2023/08/03 09:57:08;;;;;;;;;;;;;;;24.55;41.06;96313.56;4231654;28;5653;-69
2023/08/03 09:59:15;;;;;;;;;;;;;;;24.57;41.02;96307.88;4232702;27;7135;-69
2023/08/03 10:01:24;;;;;;;;;;;;;;;24.59;41.18;96314.59;4232938;28;5722;-70
2023/08/03 10:03:29;;;;;;;;;;;;;;;24.63;41.08;96309.41;4232833;27;5831;-69
2023/08/03 10:05:39;;;;;;;;;;;;;;;24.66;41.06;96306.91;4230904;28;5666;-69
2023/08/03 10:07:49;;;;;;;;;;;;;;;24.68;40.79;96306.63;4215609;27;5666;-69
2023/08/03 10:09:58;;;;;;;;;;;;;;;24.70;40.97;96307.16;4231103;28;5721;-69
2023/08/03 10:12:06;;;;;;;;;;;;;;;24.72;40.87;96296.03;4232415;28;5630;-70
2023/08/03 10:14:10;;;;;;;;;;;;;;;24.73;40.75;96311.94;4224660;28;5669;-70
2023/08/03 10:16:14;;;;;;;;;;;;;;;24.72;40.69;96310.34;4232251;28;5800;-71
2023/08/03 10:18:18;;;;;;;;;;;;;;;24.72;40.28;96301.44;4232319;28;5823;-69
2023/08/03 10:20:42;;;;;;;;;;;;;;;24.70;40.34;96301.75;4232641;28;5679;-70
2023/08/03 10:23:12;;;;;;;;;;;;;;;24.70;40.85;96307.16;4232631;28;5817;-70
2023/08/03 10:25:16;;;;;;;;;;;;;;;24.72;40.73;96309.53;4222941;28;5881;-70
2023/08/03 10:27:20;;;;;;;;;;;;;;;24.70;40.68;96307.16;4225875;28;5646;-70
2023/08/03 10:29:55;;;;;;;;;;;;;;;24.72;40.85;96304.94;4232679;28;5786;-70
2023/08/03 10:31:57;;;;;;;;;;;;;;;24.74;40.43;96305.44;4225074;28;5675;-70
2023/08/03 10:34:08;;;;;;;;;;;;;;;24.79;40.99;96309.94;4229843;28;5749;-69
2023/08/03 10:36:33;;;;;;;;;;;;;;;24.81;40.76;96303.19;4229985;28;5713;-70
2023/08/03 10:38:43;;;;;;;;;;;;;;;24.82;40.76;96304.78;4232592;28;5657;-70
2023/08/03 10:40:46;;;;;;;;;;;;;;;24.83;40.41;96305.56;4219755;28;5671;-70
2023/08/03 10:43:08;;;;;;;;;;;;;;;24.84;40.37;96302.56;4230532;28;5768;-70
2023/08/03 10:45:29;;;;;;;;;;;;;;;24.85;40.40;96295.28;4233078;28;5654;-70
2023/08/03 10:47:31;;;;;;;;;;;;;;;24.87;40.56;96301.19;4229062;28;5632;-70
2023/08/03 10:49:48;;;;;;;;;;;;;;;24.87;40.28;96299.28;4233461;28;5646;-71
2023/08/03 10:51:53;;;;;;;;;;;;;;;24.93;40.59;96300.00;4233446;28;5642;-70
2023/08/03 10:53:58;;;;;;;;;;;;;;;24.96;40.31;96299.41;4233556;27;5662;-70
2023/08/03 10:56:06;;;;;;;;;;;;;;;24.98;40.42;96302.59;4233456;27;5647;-70
2023/08/03 10:58:09;;;;;;;;;;;;;;;25.00;40.10;96294.19;4227731;28;5741;-70
2023/08/03 11:00:13;;;;;;;;;;;;;;;25.04;40.24;96295.25;4236593;28;5778;-70